sensor_id;sensor_type;location;lat;lon;timestamp;P1;durP1;ratioP1;P2;durP2;ratioP2
75246;SDS011;63844;50.042;19.224;2024-02-14T00:01:21;71.60;;;30.00;;
75246;SDS011;63844;50.042;19.224;2024-02-14T00:02:58;75.20;;;31.20;;
75246;SDS011;63844;50.042;19.224;2024-02-14T00:04:34;77.40;;;32.30;;
75246;SDS011;63844;50.042;19.224;2024-02-14T00:06:11;73.70;;;33.00;;
75246;SDS011;63844;50.042;19.224;2024-02-14T00:07:49;89.20;;;36.00;;
75246;SDS011;63844;50.042;19.224;2024-02-14T00:09:25;91.80;;;38.00;;
75246;SDS011;63844;50.042;19.224;2024-02-14T00:11:02;78.30;;;34.30;;
75246;SDS011;63844;50.042;19.224;2024-02-14T00:12:38;78.30;;;33.20;;
75246;SDS011;63844;50.042;19.224;2024-02-14T00:14:15;83.40;;;36.60;;
75246;SDS011;63844;50.042;19.224;2024-02-14T00:15:52;86.40;;;36.10;;
75246;SDS011;63844;50.042;19.224;2024-02-14T00:17:28;83.40;;;38.20;;
75246;SDS011;63844;50.042;19.224;2024-02-14T00:19:05;88.80;;;35.70;;
75246;SDS011;63844;50.042;19.224;2024-02-14T00:20:42;86.40;;;36.70;;
75246;SDS011;63844;50.042;19.224;2024-02-14T00:22:18;82.60;;;36.90;;
75246;SDS011;63844;50.042;19.224;2024-02-14T00:23:55;81.60;;;35.80;;
75246;SDS011;63844;50.042;19.224;2024-02-14T00:25:32;79.40;;;34.80;;
75246;SDS011;63844;50.042;19.224;2024-02-14T00:27:09;92.50;;;36.10;;
75246;SDS011;63844;50.042;19.224;2024-02-14T00:28:46;83.30;;;35.50;;
75246;SDS011;63844;50.042;19.224;2024-02-14T00:30:22;96.10;;;38.90;;
75246;SDS011;63844;50.042;19.224;2024-02-14T00:31:59;84.10;;;35.40;;
75246;SDS011;63844;50.042;19.224;2024-02-14T00:33:37;93.20;;;37.80;;
75246;SDS011;63844;50.042;19.224;2024-02-14T00:35:13;87.40;;;36.90;;
75246;SDS011;63844;50.042;19.224;2024-02-14T00:36:50;86.40;;;36.80;;
75246;SDS011;63844;50.042;19.224;2024-02-14T00:38:26;82.40;;;34.00;;
75246;SDS011;63844;50.042;19.224;2024-02-14T00:40:03;89.00;;;37.70;;
75246;SDS011;63844;50.042;19.224;2024-02-14T00:41:40;84.30;;;36.20;;
75246;SDS011;63844;50.042;19.224;2024-02-14T00:43:17;83.60;;;33.50;;
75246;SDS011;63844;50.042;19.224;2024-02-14T00:44:53;87.50;;;36.50;;
75246;SDS011;63844;50.042;19.224;2024-02-14T00:46:30;83.40;;;37.10;;
75246;SDS011;63844;50.042;19.224;2024-02-14T00:48:06;85.90;;;36.10;;
75246;SDS011;63844;50.042;19.224;2024-02-14T00:49:43;100.30;;;40.60;;
75246;SDS011;63844;50.042;19.224;2024-02-14T00:51:20;97.50;;;38.80;;
75246;SDS011;63844;50.042;19.224;2024-02-14T00:52:58;84.00;;;37.10;;
75246;SDS011;63844;50.042;19.224;2024-02-14T00:54:34;80.20;;;35.70;;
75246;SDS011;63844;50.042;19.224;2024-02-14T00:56:11;82.60;;;38.20;;
75246;SDS011;63844;50.042;19.224;2024-02-14T00:57:47;87.20;;;34.90;;
75246;SDS011;63844;50.042;19.224;2024-02-14T00:59:24;83.30;;;36.80;;
75246;SDS011;63844;50.042;19.224;2024-02-14T01:01:01;90.90;;;39.30;;
75246;SDS011;63844;50.042;19.224;2024-02-14T01:02:38;72.70;;;31.40;;
75246;SDS011;63844;50.042;19.224;2024-02-14T01:04:15;101.90;;;42.40;;
75246;SDS011;63844;50.042;19.224;2024-02-14T01:05:51;108.20;;;43.20;;
75246;SDS011;63844;50.042;19.224;2024-02-14T01:07:28;90.10;;;39.20;;
75246;SDS011;63844;50.042;19.224;2024-02-14T01:09:04;95.60;;;41.30;;
75246;SDS011;63844;50.042;19.224;2024-02-14T01:10:41;86.60;;;38.90;;
75246;SDS011;63844;50.042;19.224;2024-02-14T01:12:17;87.10;;;37.00;;
75246;SDS011;63844;50.042;19.224;2024-02-14T01:13:54;108.30;;;43.20;;
75246;SDS011;63844;50.042;19.224;2024-02-14T01:15:30;91.20;;;38.40;;
75246;SDS011;63844;50.042;19.224;2024-02-14T01:17:07;98.60;;;41.90;;
75246;SDS011;63844;50.042;19.224;2024-02-14T01:18:44;99.60;;;40.80;;
75246;SDS011;63844;50.042;19.224;2024-02-14T01:20:20;91.70;;;41.00;;
75246;SDS011;63844;50.042;19.224;2024-02-14T01:21:57;91.00;;;40.80;;
75246;SDS011;63844;50.042;19.224;2024-02-14T01:23:33;91.70;;;40.60;;
75246;SDS011;63844;50.042;19.224;2024-02-14T01:25:10;91.50;;;38.50;;
75246;SDS011;63844;50.042;19.224;2024-02-14T01:26:47;84.70;;;36.70;;
75246;SDS011;63844;50.042;19.224;2024-02-14T01:28:23;90.20;;;38.10;;
75246;SDS011;63844;50.042;19.224;2024-02-14T01:30:00;88.60;;;38.30;;
75246;SDS011;63844;50.042;19.224;2024-02-14T01:31:36;98.90;;;42.30;;
75246;SDS011;63844;50.042;19.224;2024-02-14T01:33:13;88.30;;;38.00;;
75246;SDS011;63844;50.042;19.224;2024-02-14T01:34:50;90.90;;;39.70;;
75246;SDS011;63844;50.042;19.224;2024-02-14T01:36:26;91.60;;;37.90;;
75246;SDS011;63844;50.042;19.224;2024-02-14T01:38:03;95.50;;;41.20;;
75246;SDS011;63844;50.042;19.224;2024-02-14T01:39:41;92.80;;;37.90;;
75246;SDS011;63844;50.042;19.224;2024-02-14T01:41:17;96.60;;;41.10;;
75246;SDS011;63844;50.042;19.224;2024-02-14T01:42:54;95.40;;;40.40;;
75246;SDS011;63844;50.042;19.224;2024-02-14T01:44:31;96.40;;;41.70;;
75246;SDS011;63844;50.042;19.224;2024-02-14T01:46:08;87.90;;;39.30;;
75246;SDS011;63844;50.042;19.224;2024-02-14T01:47:45;88.90;;;38.40;;
75246;SDS011;63844;50.042;19.224;2024-02-14T01:49:21;84.60;;;35.70;;
75246;SDS011;63844;50.042;19.224;2024-02-14T01:50:58;85.80;;;36.20;;
75246;SDS011;63844;50.042;19.224;2024-02-14T01:52:40;91.70;;;40.60;;
75246;SDS011;63844;50.042;19.224;2024-02-14T01:54:17;92.80;;;39.90;;
75246;SDS011;63844;50.042;19.224;2024-02-14T01:55:54;81.90;;;35.70;;
75246;SDS011;63844;50.042;19.224;2024-02-14T01:57:31;84.20;;;36.40;;
75246;SDS011;63844;50.042;19.224;2024-02-14T01:59:08;89.60;;;37.90;;
75246;SDS011;63844;50.042;19.224;2024-02-14T02:00:45;93.90;;;40.30;;
75246;SDS011;63844;50.042;19.224;2024-02-14T02:02:22;85.50;;;38.10;;
75246;SDS011;63844;50.042;19.224;2024-02-14T02:04:02;87.90;;;37.90;;
75246;SDS011;63844;50.042;19.224;2024-02-14T02:05:40;86.10;;;37.00;;
75246;SDS011;63844;50.042;19.224;2024-02-14T02:07:18;87.50;;;37.70;;
75246;SDS011;63844;50.042;19.224;2024-02-14T02:08:56;98.00;;;38.00;;
75246;SDS011;63844;50.042;19.224;2024-02-14T02:10:33;95.00;;;39.40;;
75246;SDS011;63844;50.042;19.224;2024-02-14T02:12:09;85.90;;;37.10;;
75246;SDS011;63844;50.042;19.224;2024-02-14T02:13:46;93.70;;;37.60;;
75246;SDS011;63844;50.042;19.224;2024-02-14T02:15:22;90.10;;;37.90;;
75246;SDS011;63844;50.042;19.224;2024-02-14T02:16:59;81.50;;;34.30;;
75246;SDS011;63844;50.042;19.224;2024-02-14T02:18:36;80.10;;;32.80;;
75246;SDS011;63844;50.042;19.224;2024-02-14T02:20:13;81.30;;;35.40;;
75246;SDS011;63844;50.042;19.224;2024-02-14T02:21:53;82.60;;;34.80;;
75246;SDS011;63844;50.042;19.224;2024-02-14T02:23:29;84.20;;;34.60;;
75246;SDS011;63844;50.042;19.224;2024-02-14T02:25:07;76.50;;;33.90;;
75246;SDS011;63844;50.042;19.224;2024-02-14T02:26:44;81.20;;;35.10;;
75246;SDS011;63844;50.042;19.224;2024-02-14T02:28:20;81.60;;;35.10;;
75246;SDS011;63844;50.042;19.224;2024-02-14T02:30:00;84.40;;;35.30;;
75246;SDS011;63844;50.042;19.224;2024-02-14T02:31:39;89.50;;;38.00;;
75246;SDS011;63844;50.042;19.224;2024-02-14T02:33:15;86.50;;;35.80;;
75246;SDS011;63844;50.042;19.224;2024-02-14T02:34:51;88.70;;;38.30;;
75246;SDS011;63844;50.042;19.224;2024-02-14T02:36:28;86.40;;;37.70;;
75246;SDS011;63844;50.042;19.224;2024-02-14T02:38:06;78.40;;;34.70;;
75246;SDS011;63844;50.042;19.224;2024-02-14T02:39:42;78.00;;;36.30;;
75246;SDS011;63844;50.042;19.224;2024-02-14T02:41:19;83.90;;;38.60;;
75246;SDS011;63844;50.042;19.224;2024-02-14T02:42:55;87.80;;;40.30;;
75246;SDS011;63844;50.042;19.224;2024-02-14T02:44:32;92.20;;;41.60;;
75246;SDS011;63844;50.042;19.224;2024-02-14T02:46:09;92.20;;;39.10;;
75246;SDS011;63844;50.042;19.224;2024-02-14T02:47:46;83.10;;;36.20;;
75246;SDS011;63844;50.042;19.224;2024-02-14T02:49:24;88.70;;;35.70;;
75246;SDS011;63844;50.042;19.224;2024-02-14T02:51:00;91.20;;;38.30;;
75246;SDS011;63844;50.042;19.224;2024-02-14T02:52:36;92.50;;;41.40;;
75246;SDS011;63844;50.042;19.224;2024-02-14T02:54:14;85.20;;;38.60;;
75246;SDS011;63844;50.042;19.224;2024-02-14T02:55:50;86.60;;;37.00;;
75246;SDS011;63844;50.042;19.224;2024-02-14T02:57:28;90.00;;;40.00;;
75246;SDS011;63844;50.042;19.224;2024-02-14T02:59:05;89.70;;;40.20;;
75246;SDS011;63844;50.042;19.224;2024-02-14T03:00:42;90.20;;;40.90;;
75246;SDS011;63844;50.042;19.224;2024-02-14T03:02:18;91.40;;;39.80;;
75246;SDS011;63844;50.042;19.224;2024-02-14T03:03:55;80.60;;;37.70;;
75246;SDS011;63844;50.042;19.224;2024-02-14T03:05:31;85.90;;;38.00;;
75246;SDS011;63844;50.042;19.224;2024-02-14T03:07:08;96.50;;;44.10;;
75246;SDS011;63844;50.042;19.224;2024-02-14T03:08:45;93.50;;;41.30;;
75246;SDS011;63844;50.042;19.224;2024-02-14T03:10:21;85.90;;;38.20;;
75246;SDS011;63844;50.042;19.224;2024-02-14T03:11:58;74.30;;;34.70;;
75246;SDS011;63844;50.042;19.224;2024-02-14T03:13:34;85.90;;;37.00;;
75246;SDS011;63844;50.042;19.224;2024-02-14T03:15:12;98.40;;;45.20;;
75246;SDS011;63844;50.042;19.224;2024-02-14T03:16:49;98.00;;;44.30;;
75246;SDS011;63844;50.042;19.224;2024-02-14T03:18:26;90.50;;;40.60;;
75246;SDS011;63844;50.042;19.224;2024-02-14T03:20:03;83.80;;;39.30;;
75246;SDS011;63844;50.042;19.224;2024-02-14T03:21:44;81.30;;;38.00;;
75246;SDS011;63844;50.042;19.224;2024-02-14T03:23:22;83.80;;;38.00;;
75246;SDS011;63844;50.042;19.224;2024-02-14T03:24:59;89.70;;;40.70;;
75246;SDS011;63844;50.042;19.224;2024-02-14T03:26:36;86.90;;;39.90;;
75246;SDS011;63844;50.042;19.224;2024-02-14T03:28:12;85.80;;;39.30;;
75246;SDS011;63844;50.042;19.224;2024-02-14T03:29:49;102.40;;;46.00;;
75246;SDS011;63844;50.042;19.224;2024-02-14T03:31:27;100.60;;;43.60;;
75246;SDS011;63844;50.042;19.224;2024-02-14T03:33:03;95.40;;;41.20;;
75246;SDS011;63844;50.042;19.224;2024-02-14T03:34:40;92.00;;;41.60;;
75246;SDS011;63844;50.042;19.224;2024-02-14T03:36:17;81.00;;;35.30;;
75246;SDS011;63844;50.042;19.224;2024-02-14T03:37:54;71.00;;;33.80;;
75246;SDS011;63844;50.042;19.224;2024-02-14T03:39:31;89.00;;;39.90;;
75246;SDS011;63844;50.042;19.224;2024-02-14T03:41:07;101.70;;;43.30;;
75246;SDS011;63844;50.042;19.224;2024-02-14T03:42:44;90.50;;;37.60;;
75246;SDS011;63844;50.042;19.224;2024-02-14T03:44:20;75.30;;;35.00;;
75246;SDS011;63844;50.042;19.224;2024-02-14T03:45:56;90.40;;;38.30;;
75246;SDS011;63844;50.042;19.224;2024-02-14T03:47:33;83.70;;;37.50;;
75246;SDS011;63844;50.042;19.224;2024-02-14T03:49:09;71.70;;;34.00;;
75246;SDS011;63844;50.042;19.224;2024-02-14T03:50:46;76.00;;;34.10;;
75246;SDS011;63844;50.042;19.224;2024-02-14T03:52:22;79.20;;;35.00;;
75246;SDS011;63844;50.042;19.224;2024-02-14T03:53:59;88.40;;;37.80;;
75246;SDS011;63844;50.042;19.224;2024-02-14T03:55:36;79.50;;;35.80;;
75246;SDS011;63844;50.042;19.224;2024-02-14T03:57:13;80.50;;;35.60;;
75246;SDS011;63844;50.042;19.224;2024-02-14T03:58:50;83.10;;;35.90;;
75246;SDS011;63844;50.042;19.224;2024-02-14T04:00:27;71.20;;;32.30;;
75246;SDS011;63844;50.042;19.224;2024-02-14T04:02:06;88.40;;;38.70;;
75246;SDS011;63844;50.042;19.224;2024-02-14T04:03:46;81.90;;;37.80;;
75246;SDS011;63844;50.042;19.224;2024-02-14T04:05:23;89.60;;;38.10;;
75246;SDS011;63844;50.042;19.224;2024-02-14T04:07:00;77.40;;;34.90;;
75246;SDS011;63844;50.042;19.224;2024-02-14T04:08:37;85.30;;;37.00;;
75246;SDS011;63844;50.042;19.224;2024-02-14T04:10:13;82.70;;;37.70;;
75246;SDS011;63844;50.042;19.224;2024-02-14T04:11:50;90.40;;;40.30;;
75246;SDS011;63844;50.042;19.224;2024-02-14T04:13:26;88.50;;;38.10;;
75246;SDS011;63844;50.042;19.224;2024-02-14T04:15:03;77.00;;;35.00;;
75246;SDS011;63844;50.042;19.224;2024-02-14T04:16:39;85.10;;;36.60;;
75246;SDS011;63844;50.042;19.224;2024-02-14T04:18:16;75.80;;;34.90;;
75246;SDS011;63844;50.042;19.224;2024-02-14T04:19:54;78.70;;;34.90;;
75246;SDS011;63844;50.042;19.224;2024-02-14T04:21:30;85.40;;;37.70;;
75246;SDS011;63844;50.042;19.224;2024-02-14T04:23:07;78.90;;;34.90;;
75246;SDS011;63844;50.042;19.224;2024-02-14T04:24:43;83.80;;;37.00;;
75246;SDS011;63844;50.042;19.224;2024-02-14T04:26:20;72.60;;;32.40;;
75246;SDS011;63844;50.042;19.224;2024-02-14T04:27:57;78.90;;;34.30;;
75246;SDS011;63844;50.042;19.224;2024-02-14T04:29:35;81.20;;;35.60;;
75246;SDS011;63844;50.042;19.224;2024-02-14T04:31:12;76.80;;;32.30;;
75246;SDS011;63844;50.042;19.224;2024-02-14T04:32:48;76.00;;;33.90;;
75246;SDS011;63844;50.042;19.224;2024-02-14T04:34:25;85.00;;;36.10;;
75246;SDS011;63844;50.042;19.224;2024-02-14T04:36:02;84.20;;;35.50;;
75246;SDS011;63844;50.042;19.224;2024-02-14T04:37:40;71.60;;;30.90;;
75246;SDS011;63844;50.042;19.224;2024-02-14T04:39:19;74.70;;;33.30;;
75246;SDS011;63844;50.042;19.224;2024-02-14T04:40:56;76.30;;;34.60;;
75246;SDS011;63844;50.042;19.224;2024-02-14T04:42:34;73.30;;;31.80;;
75246;SDS011;63844;50.042;19.224;2024-02-14T04:44:11;75.80;;;31.80;;
75246;SDS011;63844;50.042;19.224;2024-02-14T04:45:47;81.80;;;35.60;;
75246;SDS011;63844;50.042;19.224;2024-02-14T04:47:24;82.20;;;35.90;;
75246;SDS011;63844;50.042;19.224;2024-02-14T04:49:01;88.10;;;36.00;;
75246;SDS011;63844;50.042;19.224;2024-02-14T04:50:39;68.10;;;31.20;;
75246;SDS011;63844;50.042;19.224;2024-02-14T04:52:15;67.30;;;29.50;;
75246;SDS011;63844;50.042;19.224;2024-02-14T04:53:52;72.20;;;31.30;;
75246;SDS011;63844;50.042;19.224;2024-02-14T04:55:29;74.70;;;33.80;;
75246;SDS011;63844;50.042;19.224;2024-02-14T04:57:06;78.60;;;33.20;;
75246;SDS011;63844;50.042;19.224;2024-02-14T04:58:42;73.70;;;31.50;;
75246;SDS011;63844;50.042;19.224;2024-02-14T05:00:19;75.50;;;31.60;;
75246;SDS011;63844;50.042;19.224;2024-02-14T05:01:56;74.30;;;33.20;;
75246;SDS011;63844;50.042;19.224;2024-02-14T05:03:32;64.30;;;30.00;;
75246;SDS011;63844;50.042;19.224;2024-02-14T05:05:09;74.00;;;32.20;;
75246;SDS011;63844;50.042;19.224;2024-02-14T05:06:45;76.00;;;32.70;;
75246;SDS011;63844;50.042;19.224;2024-02-14T05:08:22;75.80;;;32.80;;
75246;SDS011;63844;50.042;19.224;2024-02-14T05:09:58;81.70;;;33.00;;
75246;SDS011;63844;50.042;19.224;2024-02-14T05:11:35;75.60;;;32.60;;
75246;SDS011;63844;50.042;19.224;2024-02-14T05:13:11;75.70;;;30.30;;
75246;SDS011;63844;50.042;19.224;2024-02-14T05:14:49;77.50;;;31.00;;
75246;SDS011;63844;50.042;19.224;2024-02-14T05:16:25;72.60;;;30.10;;
75246;SDS011;63844;50.042;19.224;2024-02-14T05:18:03;86.90;;;33.80;;
75246;SDS011;63844;50.042;19.224;2024-02-14T05:19:41;86.20;;;33.80;;
75246;SDS011;63844;50.042;19.224;2024-02-14T05:21:22;75.50;;;31.60;;
75246;SDS011;63844;50.042;19.224;2024-02-14T05:22:58;78.70;;;32.50;;
75246;SDS011;63844;50.042;19.224;2024-02-14T05:24:35;70.20;;;29.20;;
75246;SDS011;63844;50.042;19.224;2024-02-14T05:26:13;70.30;;;29.10;;
75246;SDS011;63844;50.042;19.224;2024-02-14T05:27:50;74.90;;;30.10;;
75246;SDS011;63844;50.042;19.224;2024-02-14T05:29:26;74.20;;;32.10;;
75246;SDS011;63844;50.042;19.224;2024-02-14T05:31:03;69.50;;;30.00;;
75246;SDS011;63844;50.042;19.224;2024-02-14T05:32:39;69.30;;;30.70;;
75246;SDS011;63844;50.042;19.224;2024-02-14T05:34:16;78.60;;;31.70;;
75246;SDS011;63844;50.042;19.224;2024-02-14T05:35:52;60.90;;;24.70;;
75246;SDS011;63844;50.042;19.224;2024-02-14T05:37:29;81.50;;;33.40;;
75246;SDS011;63844;50.042;19.224;2024-02-14T05:39:05;81.80;;;32.80;;
75246;SDS011;63844;50.042;19.224;2024-02-14T05:40:42;82.10;;;32.60;;
75246;SDS011;63844;50.042;19.224;2024-02-14T05:42:20;74.90;;;31.40;;
75246;SDS011;63844;50.042;19.224;2024-02-14T05:43:57;85.50;;;35.10;;
75246;SDS011;63844;50.042;19.224;2024-02-14T05:45:34;84.80;;;35.40;;
75246;SDS011;63844;50.042;19.224;2024-02-14T05:47:10;71.70;;;31.30;;
75246;SDS011;63844;50.042;19.224;2024-02-14T05:48:47;72.60;;;30.50;;
75246;SDS011;63844;50.042;19.224;2024-02-14T05:50:24;69.90;;;31.60;;
75246;SDS011;63844;50.042;19.224;2024-02-14T05:52:00;69.50;;;29.90;;
75246;SDS011;63844;50.042;19.224;2024-02-14T05:53:37;75.50;;;32.10;;
75246;SDS011;63844;50.042;19.224;2024-02-14T05:55:13;75.60;;;31.30;;
75246;SDS011;63844;50.042;19.224;2024-02-14T05:56:51;75.40;;;30.70;;
75246;SDS011;63844;50.042;19.224;2024-02-14T05:58:27;72.70;;;33.30;;
75246;SDS011;63844;50.042;19.224;2024-02-14T06:00:05;79.70;;;32.90;;
75246;SDS011;63844;50.042;19.224;2024-02-14T06:01:42;84.60;;;35.40;;
75246;SDS011;63844;50.042;19.224;2024-02-14T06:03:18;97.10;;;40.00;;
75246;SDS011;63844;50.042;19.224;2024-02-14T06:04:55;84.00;;;35.10;;
75246;SDS011;63844;50.042;19.224;2024-02-14T06:06:31;89.00;;;38.00;;
75246;SDS011;63844;50.042;19.224;2024-02-14T06:08:08;84.80;;;37.60;;
75246;SDS011;63844;50.042;19.224;2024-02-14T06:09:44;88.10;;;37.10;;
75246;SDS011;63844;50.042;19.224;2024-02-14T06:11:21;88.30;;;36.70;;
75246;SDS011;63844;50.042;19.224;2024-02-14T06:12:58;82.60;;;34.90;;
75246;SDS011;63844;50.042;19.224;2024-02-14T06:14:36;84.10;;;33.00;;
75246;SDS011;63844;50.042;19.224;2024-02-14T06:16:12;89.00;;;35.00;;
75246;SDS011;63844;50.042;19.224;2024-02-14T06:17:49;79.00;;;32.20;;
75246;SDS011;63844;50.042;19.224;2024-02-14T06:19:26;70.80;;;30.30;;
75246;SDS011;63844;50.042;19.224;2024-02-14T06:21:03;79.90;;;31.80;;
75246;SDS011;63844;50.042;19.224;2024-02-14T06:22:39;81.70;;;32.70;;
75246;SDS011;63844;50.042;19.224;2024-02-14T06:24:16;77.90;;;30.80;;
75246;SDS011;63844;50.042;19.224;2024-02-14T06:25:55;81.80;;;32.70;;
75246;SDS011;63844;50.042;19.224;2024-02-14T06:27:31;77.90;;;34.30;;
75246;SDS011;63844;50.042;19.224;2024-02-14T06:29:08;80.90;;;32.80;;
75246;SDS011;63844;50.042;19.224;2024-02-14T06:30:44;77.80;;;31.40;;
75246;SDS011;63844;50.042;19.224;2024-02-14T06:32:21;75.90;;;31.10;;
75246;SDS011;63844;50.042;19.224;2024-02-14T06:33:57;77.90;;;30.40;;
75246;SDS011;63844;50.042;19.224;2024-02-14T06:35:34;79.90;;;31.80;;
75246;SDS011;63844;50.042;19.224;2024-02-14T06:37:10;72.00;;;27.90;;
75246;SDS011;63844;50.042;19.224;2024-02-14T06:38:47;77.10;;;31.60;;
75246;SDS011;63844;50.042;19.224;2024-02-14T06:40:23;67.00;;;29.00;;
75246;SDS011;63844;50.042;19.224;2024-02-14T06:42:03;75.40;;;31.10;;
75246;SDS011;63844;50.042;19.224;2024-02-14T06:43:40;82.30;;;34.50;;
75246;SDS011;63844;50.042;19.224;2024-02-14T06:45:16;81.80;;;34.00;;
75246;SDS011;63844;50.042;19.224;2024-02-14T06:46:54;86.50;;;34.60;;
75246;SDS011;63844;50.042;19.224;2024-02-14T06:48:30;86.30;;;35.40;;
75246;SDS011;63844;50.042;19.224;2024-02-14T06:50:07;82.80;;;32.30;;
75246;SDS011;63844;50.042;19.224;2024-02-14T06:51:44;72.60;;;30.70;;
75246;SDS011;63844;50.042;19.224;2024-02-14T06:53:21;76.30;;;31.60;;
75246;SDS011;63844;50.042;19.224;2024-02-14T06:54:58;96.00;;;37.70;;
75246;SDS011;63844;50.042;19.224;2024-02-14T06:56:35;85.20;;;36.20;;
75246;SDS011;63844;50.042;19.224;2024-02-14T06:58:11;71.80;;;30.90;;
75246;SDS011;63844;50.042;19.224;2024-02-14T06:59:48;68.90;;;30.80;;
75246;SDS011;63844;50.042;19.224;2024-02-14T07:01:25;79.70;;;32.70;;
75246;SDS011;63844;50.042;19.224;2024-02-14T07:03:03;79.30;;;34.50;;
75246;SDS011;63844;50.042;19.224;2024-02-14T07:04:40;81.40;;;32.90;;
75246;SDS011;63844;50.042;19.224;2024-02-14T07:06:17;80.30;;;34.00;;
75246;SDS011;63844;50.042;19.224;2024-02-14T07:07:54;68.50;;;31.90;;
75246;SDS011;63844;50.042;19.224;2024-02-14T07:09:31;76.20;;;31.60;;
75246;SDS011;63844;50.042;19.224;2024-02-14T07:11:11;80.40;;;33.40;;
75246;SDS011;63844;50.042;19.224;2024-02-14T07:12:48;69.10;;;30.20;;
75246;SDS011;63844;50.042;19.224;2024-02-14T07:14:24;76.70;;;32.10;;
75246;SDS011;63844;50.042;19.224;2024-02-14T07:16:01;78.80;;;33.10;;
75246;SDS011;63844;50.042;19.224;2024-02-14T07:17:37;77.70;;;32.30;;
75246;SDS011;63844;50.042;19.224;2024-02-14T07:19:16;73.60;;;30.80;;
75246;SDS011;63844;50.042;19.224;2024-02-14T07:20:55;73.10;;;30.50;;
75246;SDS011;63844;50.042;19.224;2024-02-14T07:22:32;79.10;;;33.30;;
75246;SDS011;63844;50.042;19.224;2024-02-14T07:24:09;73.70;;;30.70;;
75246;SDS011;63844;50.042;19.224;2024-02-14T07:25:46;68.80;;;32.50;;
75246;SDS011;63844;50.042;19.224;2024-02-14T07:27:22;75.60;;;32.20;;
75246;SDS011;63844;50.042;19.224;2024-02-14T07:29:00;77.00;;;32.70;;
75246;SDS011;63844;50.042;19.224;2024-02-14T07:30:39;76.40;;;33.30;;
75246;SDS011;63844;50.042;19.224;2024-02-14T07:32:16;74.20;;;33.80;;
75246;SDS011;63844;50.042;19.224;2024-02-14T07:33:53;78.20;;;34.00;;
75246;SDS011;63844;50.042;19.224;2024-02-14T07:35:30;75.60;;;33.70;;
75246;SDS011;63844;50.042;19.224;2024-02-14T07:37:06;73.50;;;33.60;;
75246;SDS011;63844;50.042;19.224;2024-02-14T07:38:43;73.30;;;33.50;;
75246;SDS011;63844;50.042;19.224;2024-02-14T07:40:20;94.50;;;39.70;;
75246;SDS011;63844;50.042;19.224;2024-02-14T07:41:57;89.00;;;39.60;;
75246;SDS011;63844;50.042;19.224;2024-02-14T07:43:34;90.40;;;41.30;;
75246;SDS011;63844;50.042;19.224;2024-02-14T07:45:10;96.00;;;41.90;;
75246;SDS011;63844;50.042;19.224;2024-02-14T07:46:48;100.30;;;41.90;;
75246;SDS011;63844;50.042;19.224;2024-02-14T07:48:25;87.20;;;38.40;;
75246;SDS011;63844;50.042;19.224;2024-02-14T07:50:02;79.50;;;36.90;;
75246;SDS011;63844;50.042;19.224;2024-02-14T07:51:39;88.40;;;41.40;;
75246;SDS011;63844;50.042;19.224;2024-02-14T07:53:15;79.40;;;36.80;;
75246;SDS011;63844;50.042;19.224;2024-02-14T07:54:52;80.90;;;37.00;;
75246;SDS011;63844;50.042;19.224;2024-02-14T07:56:32;83.50;;;37.00;;
75246;SDS011;63844;50.042;19.224;2024-02-14T07:58:08;84.90;;;38.70;;
75246;SDS011;63844;50.042;19.224;2024-02-14T07:59:45;90.60;;;40.10;;
75246;SDS011;63844;50.042;19.224;2024-02-14T08:01:21;87.90;;;38.70;;
75246;SDS011;63844;50.042;19.224;2024-02-14T08:02:58;86.20;;;38.40;;
75246;SDS011;63844;50.042;19.224;2024-02-14T08:04:34;92.30;;;41.40;;
75246;SDS011;63844;50.042;19.224;2024-02-14T08:06:11;92.70;;;40.50;;
75246;SDS011;63844;50.042;19.224;2024-02-14T08:07:47;90.20;;;38.70;;
75246;SDS011;63844;50.042;19.224;2024-02-14T08:09:24;92.80;;;40.00;;
75246;SDS011;63844;50.042;19.224;2024-02-14T08:11:01;83.60;;;38.10;;
75246;SDS011;63844;50.042;19.224;2024-02-14T08:12:37;74.70;;;32.90;;
75246;SDS011;63844;50.042;19.224;2024-02-14T08:14:14;68.30;;;31.50;;
75246;SDS011;63844;50.042;19.224;2024-02-14T08:15:50;58.20;;;27.00;;
75246;SDS011;63844;50.042;19.224;2024-02-14T08:17:27;64.90;;;29.30;;
75246;SDS011;63844;50.042;19.224;2024-02-14T08:19:03;87.90;;;40.60;;
75246;SDS011;63844;50.042;19.224;2024-02-14T08:20:40;79.50;;;37.40;;
75246;SDS011;63844;50.042;19.224;2024-02-14T08:22:17;75.80;;;35.30;;
75246;SDS011;63844;50.042;19.224;2024-02-14T08:23:54;81.80;;;38.30;;
75246;SDS011;63844;50.042;19.224;2024-02-14T08:25:31;80.80;;;36.60;;
75246;SDS011;63844;50.042;19.224;2024-02-14T08:27:08;73.30;;;35.10;;
75246;SDS011;63844;50.042;19.224;2024-02-14T08:28:44;73.30;;;33.70;;
75246;SDS011;63844;50.042;19.224;2024-02-14T08:30:21;60.10;;;29.50;;
75246;SDS011;63844;50.042;19.224;2024-02-14T08:31:57;64.00;;;30.10;;
75246;SDS011;63844;50.042;19.224;2024-02-14T08:33:34;48.90;;;23.40;;
75246;SDS011;63844;50.042;19.224;2024-02-14T08:35:10;48.80;;;23.60;;
75246;SDS011;63844;50.042;19.224;2024-02-14T08:36:49;56.80;;;27.30;;
75246;SDS011;63844;50.042;19.224;2024-02-14T08:38:26;47.00;;;23.80;;
75246;SDS011;63844;50.042;19.224;2024-02-14T08:40:02;48.60;;;22.30;;
75246;SDS011;63844;50.042;19.224;2024-02-14T08:41:43;42.40;;;20.60;;
75246;SDS011;63844;50.042;19.224;2024-02-14T08:43:22;40.50;;;18.90;;
75246;SDS011;63844;50.042;19.224;2024-02-14T08:45:01;40.70;;;19.10;;
75246;SDS011;63844;50.042;19.224;2024-02-14T08:46:38;38.60;;;20.10;;
75246;SDS011;63844;50.042;19.224;2024-02-14T08:48:15;39.60;;;17.30;;
75246;SDS011;63844;50.042;19.224;2024-02-14T08:49:51;39.60;;;19.70;;
75246;SDS011;63844;50.042;19.224;2024-02-14T08:51:28;43.60;;;20.20;;
75246;SDS011;63844;50.042;19.224;2024-02-14T08:53:05;39.00;;;19.30;;
75246;SDS011;63844;50.042;19.224;2024-02-14T08:54:42;40.30;;;19.00;;
75246;SDS011;63844;50.042;19.224;2024-02-14T08:56:18;38.90;;;18.20;;
75246;SDS011;63844;50.042;19.224;2024-02-14T08:57:55;53.80;;;23.50;;
75246;SDS011;63844;50.042;19.224;2024-02-14T08:59:32;53.40;;;26.10;;
75246;SDS011;63844;50.042;19.224;2024-02-14T09:01:08;56.40;;;27.80;;
75246;SDS011;63844;50.042;19.224;2024-02-14T09:02:46;54.30;;;27.20;;
75246;SDS011;63844;50.042;19.224;2024-02-14T09:04:26;57.60;;;27.60;;
75246;SDS011;63844;50.042;19.224;2024-02-14T09:06:03;61.70;;;27.20;;
75246;SDS011;63844;50.042;19.224;2024-02-14T09:07:40;58.60;;;27.70;;
75246;SDS011;63844;50.042;19.224;2024-02-14T09:09:18;56.00;;;25.70;;
75246;SDS011;63844;50.042;19.224;2024-02-14T09:10:55;59.20;;;26.40;;
75246;SDS011;63844;50.042;19.224;2024-02-14T09:12:32;54.70;;;27.00;;
75246;SDS011;63844;50.042;19.224;2024-02-14T09:14:09;48.50;;;24.40;;
75246;SDS011;63844;50.042;19.224;2024-02-14T09:15:46;49.20;;;24.80;;
75246;SDS011;63844;50.042;19.224;2024-02-14T09:17:24;49.90;;;24.90;;
75246;SDS011;63844;50.042;19.224;2024-02-14T09:19:00;57.50;;;25.80;;